Time;durP1;ratioP1;P1;durP2;ratioP2;P2;SDS_P1;SDS_P2;PMS_P1;PMS_P2;Temp;Humidity;BMP_temperature;BMP_pressure;BME280_temperature;BME280_humidity;BME280_pressure;Samples;Min_cycle;Max_cycle;Signal;HPM_P1;HPM_P2
2022/05/17 00:06:04;;;;;;;4.72;2.22;;;19.80;64.20;;;;;;20875099;28;20116;-74
2022/05/17 00:16:05;;;;;;;2.45;1.83;;;19.70;64.30;;;;;;20875039;28;20037;-73
2022/05/17 00:26:06;;;;;;;2.05;1.65;;;19.70;64.30;;;;;;20873492;28;20101;-73
2022/05/17 00:36:08;;;;;;;3.92;2.00;;;19.70;64.30;;;;;;20855677;28;20040;-74
2022/05/17 00:46:08;;;;;;;3.92;1.70;;;19.70;64.20;;;;;;20872776;28;20041;-73
2022/05/17 00:56:12;;;;;;;3.05;1.58;;;19.70;64.20;;;;;;20871834;28;20045;-72
2022/05/17 01:06:13;;;;;;;2.80;1.83;;;19.70;64.20;;;;;;20838972;28;20049;-72
2022/05/17 01:16:13;;;;;;;2.22;1.67;;;19.70;64.20;;;;;;20855683;28;20139;-75
2022/05/17 01:26:20;;;;;;;2.70;1.67;;;19.70;64.10;;;;;;20870111;28;20041;-73
2022/05/17 01:36:22;;;;;;;2.45;1.45;;;19.70;64.20;;;;;;20854052;28;20090;-71
2022/05/17 01:46:23;;;;;;;2.50;1.52;;;19.70;64.20;;;;;;20900348;28;20107;-72
2022/05/17 01:56:23;;;;;;;3.42;1.58;;;19.70;64.20;;;;;;20869148;28;20037;-72
2022/05/17 02:06:25;;;;;;;2.03;1.42;;;19.70;64.20;;;;;;20884646;28;20033;-73
2022/05/17 02:16:25;;;;;;;1.70;1.30;;;19.70;64.20;;;;;;20901178;28;20116;-73
2022/05/17 02:26:26;;;;;;;3.13;1.40;;;19.70;64.30;;;;;;20866869;28;20051;-72
2022/05/17 02:36:26;;;;;;;2.08;1.58;;;19.60;64.20;;;;;;20882337;28;20044;-72
2022/05/17 02:46:29;;;;;;;2.45;1.55;;;19.60;64.30;;;;;;20865654;28;20036;-73
2022/05/17 02:56:30;;;;;;;2.47;1.60;;;19.60;64.30;;;;;;20864012;28;20057;-73
2022/05/17 03:06:32;;;;;;;2.63;1.98;;;19.60;64.30;;;;;;20864608;28;20124;-72
2022/05/17 03:16:32;;;;;;;2.10;1.60;;;19.60;64.30;;;;;;20862834;28;20051;-72
2022/05/17 03:26:33;;;;;;;3.20;2.00;;;19.60;64.30;;;;;;20862128;28;20099;-75
2022/05/17 03:36:34;;;;;;;2.55;1.90;;;19.60;64.30;;;;;;20845243;28;20854;-75
2022/05/17 03:46:34;;;;;;;2.55;1.85;;;19.60;64.30;;;;;;20860963;28;20452;-73
2022/05/17 03:56:35;;;;;;;6.05;2.35;;;19.60;64.30;;;;;;20859640;28;20035;-73
2022/05/17 04:06:35;;;;;;;3.60;2.35;;;19.60;64.40;;;;;;20876118;28;20528;-73
2022/05/17 04:16:37;;;;;;;4.18;2.17;;;19.60;64.50;;;;;;20874707;28;20035;-73
2022/05/17 04:26:38;;;;;;;7.53;3.47;;;19.60;64.50;;;;;;20858561;28;20409;-72
2022/05/17 04:36:38;;;;;;;7.70;4.10;;;19.60;64.80;;;;;;20874219;28;20025;-77
2022/05/17 04:46:39;;;;;;;5.70;3.83;;;19.70;65.70;;;;;;20858059;28;20047;-75
2022/05/17 04:56:39;;;;;;;5.47;3.30;;;19.80;66.40;;;;;;20874562;28;20090;-78
2022/05/17 05:06:40;;;;;;;6.88;3.58;;;19.80;66.90;;;;;;20846582;28;20049;-76
2022/05/17 05:16:41;;;;;;;4.47;3.03;;;19.90;66.90;;;;;;20855933;28;20033;-77
2022/05/17 05:26:41;;;;;;;5.25;3.47;;;19.80;66.90;;;;;;20891239;28;20052;-76
2022/05/17 05:36:43;;;;;;;7.18;4.70;;;19.80;67.00;;;;;;20904566;28;20040;-74
2022/05/17 05:46:44;;;;;;;6.80;4.18;;;19.90;67.00;;;;;;20853495;28;20052;-76
2022/05/17 05:56:45;;;;;;;7.00;3.63;;;19.80;66.90;;;;;;20887132;28;20388;-74
2022/05/17 06:06:45;;;;;;;7.30;3.90;;;19.80;66.90;;;;;;20868771;28;20128;-77
2022/05/17 06:16:50;;;;;;;10.00;4.28;;;19.80;66.90;;;;;;20853761;28;20091;-75
2022/05/17 06:26:50;;;;;;;5.70;5.03;;;19.80;66.80;;;;;;20855336;28;20041;-76
2022/05/17 06:36:51;;;;;;;6.18;3.65;;;19.80;66.80;;;;;;20870808;28;20036;-75
2022/05/17 06:46:52;;;;;;;9.50;4.80;;;19.70;66.60;;;;;;20782126;28;20041;-75
2022/05/17 06:56:52;;;;;;;8.80;5.18;;;19.80;66.60;;;;;;20861202;28;20033;-74
2022/05/17 07:06:55;;;;;;;7.28;3.83;;;19.80;66.60;;;;;;20875151;28;20029;-78
2022/05/17 07:16:56;;;;;;;6.97;4.25;;;19.80;66.70;;;;;;21246123;22;20080;-75
2022/05/17 07:26:57;;;;;;;9.30;4.40;;;19.80;66.80;;;;;;20859332;28;20091;-75
2022/05/17 07:36:57;;;;;;;7.97;4.68;;;19.80;66.80;;;;;;20866194;28;20033;-75
2022/05/17 07:46:58;;;;;;;5.32;4.00;;;19.80;66.70;;;;;;20871758;28;20662;-75
2022/05/17 07:56:59;;;;;;;8.15;3.58;;;19.80;66.70;;;;;;20858577;28;20037;-76
2022/05/17 08:06:59;;;;;;;8.00;4.43;;;19.80;66.60;;;;;;20885307;28;20473;-72
2022/05/17 08:17:00;;;;;;;5.80;4.82;;;19.90;66.70;;;;;;20907787;28;20473;-75
2022/05/17 08:37:19;;;;;;;6.20;4.60;;;19.90;66.80;;;;;;20890771;28;20037;-79
2022/05/17 08:47:26;;;;;;;8.10;5.28;;;19.90;66.80;;;;;;20870242;28;20094;-77
2022/05/17 08:57:28;;;;;;;11.07;6.47;;;19.90;66.80;;;;;;20854137;28;20079;-73
2022/05/17 09:07:36;;;;;;;9.68;5.20;;;19.90;67.10;;;;;;20885901;28;20040;-77
2022/05/17 09:17:37;;;;;;;6.70;3.80;;;19.90;67.40;;;;;;20839078;28;20032;-77
2022/05/17 09:27:38;;;;;;;8.63;4.75;;;20.00;67.70;;;;;;20884908;28;20059;-77
2022/05/17 09:37:44;;;;;;;7.47;5.65;;;20.00;68.10;;;;;;20850398;28;20090;-76
2022/05/17 09:47:56;;;;;;;;;;;20.00;68.30;;;;;;20858864;28;20695;-79
2022/05/17 09:57:59;;;;;;;9.02;4.65;;;20.00;68.50;;;;;;20883353;28;19959;-77
2022/05/17 10:08:02;;;;;;;9.05;4.95;;;20.10;68.50;;;;;;20915332;28;20099;-76
2022/05/17 10:18:08;;;;;;;10.40;4.47;;;20.10;68.50;;;;;;20899040;28;20052;-76
2022/05/17 10:28:37;;;;;;;10.55;3.97;;;20.10;68.50;;;;;;20881634;28;20035;-75
2022/05/17 10:38:41;;;;;;;6.35;3.90;;;20.00;68.50;;;;;;20881658;28;20575;-75
2022/05/17 10:48:58;;;;;;;7.72;3.88;;;20.10;68.60;;;;;;20881919;28;20123;-76
2022/05/17 10:59:25;;;;;;;7.63;3.40;;;20.10;68.50;;;;;;20879693;28;20073;-73
2022/05/17 11:09:43;;;;;;;4.43;3.28;;;20.10;68.30;;;;;;20868168;28;20154;-74
2022/05/17 11:20:06;;;;;;;5.93;3.35;;;20.10;68.10;;;;;;20909780;28;20123;-74
2022/05/17 11:30:09;;;;;;;7.72;3.30;;;20.10;67.90;;;;;;20894120;28;20610;-75
2022/05/17 11:40:10;;;;;;;6.70;2.97;;;20.10;67.80;;;;;;20910724;28;20087;-75
2022/05/17 11:50:20;;;;;;;6.88;2.65;;;20.10;67.80;;;;;;20860924;28;20424;-74
2022/05/17 12:00:23;;;;;;;4.75;2.40;;;20.10;67.70;;;;;;20876228;28;20037;-74
2022/05/17 12:10:24;;;;;;;7.47;2.85;;;20.10;67.50;;;;;;20811836;28;20048;-74
2022/05/17 12:20:46;;;;;;;4.50;1.95;;;20.20;67.30;;;;;;20892085;28;20039;-73
2022/05/17 12:30:53;;;;;;;4.70;2.33;;;20.20;67.00;;;;;;20858167;28;20129;-73
2022/05/17 12:51:20;;;;;;;4.13;2.47;;;20.20;66.40;;;;;;20874613;28;20037;-70
2022/05/17 13:01:22;;;;;;;4.82;2.47;;;20.30;66.30;;;;;;20871448;28;20044;-72
2022/05/17 13:11:25;;;;;;;3.35;2.20;;;20.30;66.20;;;;;;20887843;28;20438;-69
2022/05/17 13:21:32;;;;;;;4.43;2.10;;;20.30;66.10;;;;;;20870894;28;20511;-74
2022/05/17 13:31:32;;;;;;;4.18;2.20;;;20.30;66.10;;;;;;20900260;28;20037;-76
2022/05/17 13:41:40;;;;;;;7.23;4.40;;;20.40;66.10;;;;;;20881527;28;20090;-76
2022/05/17 13:51:54;;;;;;;12.95;5.03;;;20.50;66.30;;;;;;20885615;28;20406;-77
2022/05/17 14:01:58;;;;;;;11.63;4.18;;;20.60;67.60;;;;;;20886010;28;20033;-80
2022/05/17 14:12:08;;;;;;;5.55;4.25;;;20.70;68.30;;;;;;20854260;28;20037;-74
2022/05/17 14:22:09;;;;;;;7.88;3.78;;;20.70;68.50;;;;;;20869151;28;20044;-77
2022/05/17 14:32:11;;;;;;;3.83;3.07;;;20.70;68.50;;;;;;20872212;28;20040;-78
2022/05/17 14:42:13;;;;;;;4.22;3.30;;;20.70;68.20;;;;;;20897226;28;20638;-73
2022/05/17 14:52:15;;;;;;;3.38;2.30;;;20.70;68.10;;;;;;20894872;28;20110;-76
2022/05/17 15:02:16;;;;;;;3.60;3.08;;;20.70;67.80;;;;;;20848573;28;20458;-75
2022/05/17 15:12:18;;;;;;;3.58;2.72;;;20.80;67.50;;;;;;20863754;28;20061;-75
2022/05/17 15:22:18;;;;;;;3.25;2.38;;;20.90;67.20;;;;;;20879161;28;20037;-77
2022/05/17 15:32:19;;;;;;;3.47;2.27;;;20.80;67.00;;;;;;20879178;28;20036;-75
2022/05/17 15:42:20;;;;;;;3.90;2.03;;;20.90;66.90;;;;;;20872273;28;20362;-72
2022/05/17 16:02:41;;;;;;;10.05;2.70;;;20.90;66.70;;;;;;20877685;28;20041;-73
2022/05/17 16:12:42;;;;;;;6.83;2.80;;;20.90;66.50;;;;;;20858546;28;20194;-73
2022/05/17 16:22:43;;;;;;;15.27;3.28;;;21.00;66.30;;;;;;20873245;28;20279;-74
2022/05/17 16:32:46;;;;;;;12.18;2.95;;;21.20;66.10;;;;;;20857849;28;20033;-74
2022/05/17 16:42:46;;;;;;;7.78;2.47;;;21.30;66.10;;;;;;20838725;28;20036;-74
2022/05/17 16:52:47;;;;;;;11.18;2.97;;;21.30;66.00;;;;;;20850266;28;20028;-78
2022/05/17 17:02:49;;;;;;;5.18;2.20;;;21.30;66.00;;;;;;20864726;28;20420;-76
2022/05/17 17:12:50;;;;;;;5.37;2.10;;;21.30;66.70;;;;;;20890902;28;20032;-78
2022/05/17 17:22:50;;;;;;;6.00;2.60;;;21.20;66.00;;;;;;20953506;28;20280;-79
2022/05/17 17:43:11;;;;;;;8.10;2.38;;;21.10;65.80;;;;;;20909108;28;20036;-69
2022/05/17 17:53:12;;;;;;;3.40;2.10;;;21.10;65.70;;;;;;20866740;28;20539;-75
2022/05/17 18:03:14;;;;;;;3.73;1.80;;;21.10;65.90;;;;;;20839458;28;20110;-74
2022/05/17 18:13:17;;;;;;;6.57;2.28;;;21.10;65.90;;;;;;20835111;28;20049;-74
2022/05/17 18:23:18;;;;;;;3.17;2.00;;;21.10;66.00;;;;;;20856799;28;20045;-74
2022/05/17 18:33:20;;;;;;;3.28;2.05;;;21.00;66.00;;;;;;20849166;28;20166;-74
2022/05/17 18:43:21;;;;;;;5.07;2.22;;;21.00;66.00;;;;;;20864843;28;20070;-75
2022/05/17 18:53:22;;;;;;;2.73;2.00;;;20.90;66.00;;;;;;20864071;28;20075;-75
2022/05/17 19:03:30;;;;;;;2.38;1.58;;;20.90;66.00;;;;;;20847514;28;20319;-74
2022/05/17 19:13:31;;;;;;;2.45;1.63;;;20.80;66.00;;;;;;20845455;28;20139;-75
2022/05/17 19:23:32;;;;;;;2.25;1.65;;;20.80;66.00;;;;;;20961464;28;20548;-75
2022/05/17 19:33:33;;;;;;;3.85;2.08;;;20.80;66.00;;;;;;20976994;28;20086;-76
2022/05/17 19:43:34;;;;;;;2.97;1.58;;;20.70;66.00;;;;;;20958519;28;20082;-75
2022/05/17 19:53:35;;;;;;;2.92;1.48;;;20.70;66.00;;;;;;20958296;28;20469;-75
2022/05/17 20:03:35;;;;;;;3.42;1.90;;;20.70;66.10;;;;;;20957432;28;20091;-76
2022/05/17 20:13:36;;;;;;;2.37;1.60;;;20.70;66.10;;;;;;20956976;28;20114;-75
2022/05/17 20:23:37;;;;;;;2.20;1.67;;;20.60;66.00;;;;;;20956890;28;20452;-76
2022/05/17 20:33:40;;;;;;;2.38;1.80;;;20.60;66.00;;;;;;20956021;28;20492;-75
2022/05/17 20:43:41;;;;;;;3.53;2.05;;;20.60;66.00;;;;;;20968302;28;20495;-75
2022/05/17 20:53:42;;;;;;;3.13;2.00;;;20.60;66.00;;;;;;20954608;28;20064;-74
2022/05/17 21:03:44;;;;;;;1.92;1.52;;;20.60;66.10;;;;;;20952887;28;20324;-75
2022/05/17 21:13:45;;;;;;;2.53;1.73;;;20.50;66.10;;;;;;20902341;28;20044;-75
2022/05/17 21:23:45;;;;;;;2.58;1.40;;;20.50;66.70;;;;;;20936957;28;20064;-75
2022/05/17 21:33:46;;;;;;;2.40;1.75;;;20.50;66.00;;;;;;20951794;28;20049;-76
2022/05/17 21:43:47;;;;;;;2.30;1.40;;;20.50;66.00;;;;;;20951284;28;20048;-76
2022/05/17 21:53:47;;;;;;;2.42;1.60;;;20.50;66.00;;;;;;20950554;28;20123;-75
2022/05/17 22:03:48;;;;;;;3.28;1.58;;;20.50;66.00;;;;;;20965105;28;20059;-76
2022/05/17 22:13:49;;;;;;;3.20;1.70;;;20.50;66.00;;;;;;20966077;28;20078;-75
2022/05/17 22:23:49;;;;;;;4.40;2.22;;;20.50;66.00;;;;;;20981386;28;20021;-76
2022/05/17 22:33:51;;;;;;;3.67;1.70;;;20.40;66.00;;;;;;20981491;28;20048;-76
2022/05/17 22:43:52;;;;;;;2.38;1.90;;;20.50;66.00;;;;;;20963415;28;20033;-75
2022/05/17 22:53:58;;;;;;;2.40;1.85;;;20.50;66.00;;;;;;20947559;28;20465;-75
2022/05/17 23:03:59;;;;;;;2.75;1.48;;;20.40;65.90;;;;;;20963559;28;20036;-74
2022/05/17 23:14:00;;;;;;;1.92;1.63;;;20.50;66.00;;;;;;20928253;28;20041;-75
2022/05/17 23:24:00;;;;;;;2.05;1.48;;;20.40;66.00;;;;;;20879123;28;20021;-75
2022/05/17 23:34:01;;;;;;;2.13;1.70;;;20.40;65.90;;;;;;20861016;28;20032;-76
2022/05/17 23:44:01;;;;;;;3.20;1.90;;;20.40;65.90;;;;;;20876368;28;20124;-74
2022/05/17 23:54:04;;;;;;;2.15;1.60;;;20.40;65.90;;;;;;20843658;28;20047;-74
